Farmville, VA

12:11 AM EDT on July 29, 2014 (GMT -0400)
Mecklenburg-Brunswick Regional (KAVC) Elev 443 ft | 36.69 °N, 78.05 °W | Change Station

Current weather conditions updated 16 minutes ago

Clear
Clear
72 °F
Feels Like 72 °F
N
0
Wind Variable Wind from North

Today is forecast to be nearly the same temperature as yesterday.

Today
High -- | Low -- °F
--% Chance of Precip.
Yesterday
High -- | Low -- °F
Precip. -- in
6:15 AM 8:23 PM
Waxing Crescent, 4% visible
Pressure 29.91 in
Visibility 10.0 miles
Clouds Clear
Dew Point 59 °F
Humidity 64%
Rainfall 0.00 in
Snow Depth Not available.
UV 0 out of 12
Pollen 6.50 out of 12
Air Quality Not available.
Flu Activity Not available.
METAR KAVC 290355Z AUTO 00000KT 10SM CLR 22/15 A2991 RMK AO2

More Conditions Fewer Conditions

Pressure 29.91 in
Visibility 10.0 miles
Clouds Clear
Dew Point 59 °F
Humidity 64%
Rainfall 0.00 in
Snow Depth Not available.
UV 0 out of 12
Pollen 6.50 out of 12
Air Quality Not available.
Flu Activity Not available.
METAR KAVC 290355Z AUTO 00000KT 10SM CLR 22/15 A2991 RMK AO2

More Conditions Fewer Conditions

10-Day Weather Forecast

Almanac

Astronomy

Jul. 29, 2014 Rise Set
Actual Time 6:15 AM EDT 8:23 PM EDT
Civil Twilight 5:46 AM EDT 8:52 PM EDT
Nautical Twilight 5:10 AM EDT 9:28 PM EDT
Astronomical Twilight 4:32 AM EDT 10:06 PM EDT
Moon 8:45 AM EDT 9:40 PM EDT
Length of Visible Light 15h 06m
Length of Day
14h 08m
Tomorrow will be 1m 43s shorter.
Waxing Crescent, 4% of the Moon is Illuminated
Today
Waxing Crescent
Aug 3
First Quarter
Aug 10
Full
Aug 17
Last Quarter
Aug 25
New

Yesterday's Extremes

State Highs State Lows

Community

WunderPhotos

Upload Photos

1,738,626 photos uploaded!

Nearby

Snow Depth

Station Depth Elevation
No new snow has been reported.

Earthquake Activity

City Distance Mag. Time & Date
No recent earthquake activity has been reported nearby.
Minimum magnitude displayed is 2.5.

Coastal Water Temperatures

Place Temperature
No Stations Reporting

Nearby Weather Stations

Station Location Temp. Dew Point Humidity Wind Precip. Elev Updated Type
Hampden-Sydney College, Hampden-Sydney, VA 66.6 °F 58 °F 75% NW  at  0.0 mph 0.00 in / hr 510 ft 12:11 AM EDT Rapid Fire
Pamplin, VA 64.5 °F 58 °F 78% West  at  0.0 mph 0.00 in / hr 686 ft 12:01 AM EDT Normal
Far West End, Crewe, VA 66.5 °F 60 °F 81% WNW  at  0.0 mph 0.00 in / hr 502 ft 12:10 AM EDT Normal
Almost West End, Crewe, VA 67.3 °F 58 °F 72% NNW  at  0.0 mph 0.00 in / hr 518 ft 12:11 AM EDT Rapid Fire
Notestein Farms, Appomattox, VA 62.2 °F 52 °F 70% NE  at  0.0 mph 0.00 in / hr 751 ft 12:10 AM EDT Normal
Modest Creek Rd, Victoria, VA 64.6 °F 60 °F 84% WSW  at  0.0 mph 0.00 in / hr 485 ft 12:11 AM EDT Rapid Fire
Lunenberg, Victoria, VA 63.7 °F 61 °F 92% West  at  0.0 mph 0.00 in / hr 474 ft 12:11 AM EDT Rapid Fire
Gold Hill - Buckingham County, VA 64.6 °F 55 °F 71% NW  at  1.8 mph 0.00 in / hr 489 ft 12:10 AM EDT Normal

Show More Stations Show Fewer Stations